Pagrindinis puslapis
METAR-TAF:

METAR-TAF

Oro uostai :

Kristiansund, Norvegija

platuma: 63-07N, ilguma: 007-50E, Aukštis: 6 m

Dabartinis oras

Ataskaita buvo paskelbta 17 minutes, ne 09:50 UTC
Vėjas 10 kt iš Vakarų/Pietvakarių
Temperatūra 8°C
Drėgmė 81%
Slėgis 998 hPa
Matomumas 10 km arba daugiau
Išsisklaidę debesys ne aukštis 1700 ft

METAR: ENKB 290950Z 24010KT 9999 SCT017 08/05 Q0998 RMK WIND 745FT 24014KT

Laikas: 11:07 (10:07 UTC)

Prognozė

Ataskaita buvo paskelbta 2 valandos ir 7 minutes, ne 08:00 UTC
Prognozė galioja nuo 29 metu 09 UTC su 29 metu 18 UTC
Vėjas 5 kt iš Pietvakarių
Matomumas 10 km arba daugiau
Su prošvaistėmis ne aukštis 2000 ft
lietus
Tikimybė 40% :
Laikinai
nuo 29 metu 09 UTC su 29 metu 11 UTC
Su prošvaistėmis ne aukštis 1200 ft

TAF: ENKB 290800Z 2909/2918 23005KT 9999 -SHRA BKN020 PROB40 TEMPO 2909/2911 BKN012

Orai ataskaitas ir orų prognozės (METAR, TAF).

turimą stotys yra geltonos ir raudonos taškus žemėlapyje.

Perkelti pele per norėdami pamatyti stoties vardą.

Tada spustelėkite, norėdami matyti oro stebėjimo ir prognozės.

Norėdami pakeisti žemėlapį: spustelėkite ant žalios mygtukų su juodo kryžiaus žemyn,; žalią mygtuką su brūkšneliu, jei norite nutolinti; arba žalių rodyklių gretimoms žemėlapius.


METAR-TAF: